sensor_id;sensor_type;location;lat;lon;timestamp;pressure;altitude;pressure_sealevel;temperature;humidity
70302;BME280;57706;56.326;43.882;2023-03-15T00:00:46;100718.03;;;3.56;53.50
70302;BME280;57706;56.326;43.882;2023-03-15T00:03:12;100741.41;;;3.56;53.70
70302;BME280;57706;56.326;43.882;2023-03-15T00:05:42;100734.25;;;3.47;53.89
70302;BME280;57706;56.326;43.882;2023-03-15T00:08:08;100735.50;;;3.54;53.72
70302;BME280;57706;56.326;43.882;2023-03-15T00:10:34;100731.75;;;3.46;54.43
70302;BME280;57706;56.326;43.882;2023-03-15T00:13:00;100743.63;;;3.50;53.95
70302;BME280;57706;56.326;43.882;2023-03-15T00:15:25;100733.31;;;3.48;54.18
70302;BME280;57706;56.326;43.882;2023-03-15T00:17:51;100736.97;;;3.46;54.38
70302;BME280;57706;56.326;43.882;2023-03-15T00:20:17;100732.22;;;3.26;55.04
70302;BME280;57706;56.326;43.882;2023-03-15T00:22:46;100737.00;;;3.33;54.88
70302;BME280;57706;56.326;43.882;2023-03-15T00:25:11;100726.63;;;3.20;55.55
70302;BME280;57706;56.326;43.882;2023-03-15T00:27:38;100724.25;;;3.16;55.74
70302;BME280;57706;56.326;43.882;2023-03-15T00:30:04;100731.41;;;3.13;55.78
70302;BME280;57706;56.326;43.882;2023-03-15T00:32:31;100720.91;;;2.88;56.73
70302;BME280;57706;56.326;43.882;2023-03-15T00:34:57;100720.59;;;3.06;56.24
70302;BME280;57706;56.326;43.882;2023-03-15T00:37:23;100723.50;;;3.01;56.54
70302;BME280;57706;56.326;43.882;2023-03-15T00:39:50;100723.13;;;2.82;57.22
70302;BME280;57706;56.326;43.882;2023-03-15T00:42:16;100734.75;;;3.02;56.44
70302;BME280;57706;56.326;43.882;2023-03-15T00:44:43;100734.75;;;2.89;56.96
70302;BME280;57706;56.326;43.882;2023-03-15T00:47:11;100721.53;;;2.66;57.49
70302;BME280;57706;56.326;43.882;2023-03-15T00:49:38;100726.44;;;2.84;57.19
70302;BME280;57706;56.326;43.882;2023-03-15T00:52:05;100730.59;;;2.73;57.56
70302;BME280;57706;56.326;43.882;2023-03-15T00:54:32;100740.97;;;2.99;56.81
70302;BME280;57706;56.326;43.882;2023-03-15T00:56:59;100742.94;;;2.96;56.90
70302;BME280;57706;56.326;43.882;2023-03-15T00:59:27;100733.16;;;3.12;56.42
70302;BME280;57706;56.326;43.882;2023-03-15T01:01:54;100730.97;;;3.06;56.62
70302;BME280;57706;56.326;43.882;2023-03-15T01:04:21;100725.59;;;3.22;56.03
70302;BME280;57706;56.326;43.882;2023-03-15T01:06:48;100719.38;;;3.12;56.49
70302;BME280;57706;56.326;43.882;2023-03-15T01:09:14;100736.81;;;3.10;56.60
70302;BME280;57706;56.326;43.882;2023-03-15T01:11:40;100728.69;;;3.01;56.81
70302;BME280;57706;56.326;43.882;2023-03-15T01:14:05;100733.38;;;3.22;56.11
70302;BME280;57706;56.326;43.882;2023-03-15T01:16:33;100739.22;;;3.13;56.46
70302;BME280;57706;56.326;43.882;2023-03-15T01:18:59;100728.69;;;3.01;56.88
70302;BME280;57706;56.326;43.882;2023-03-15T01:21:25;100726.66;;;2.94;57.22
70302;BME280;57706;56.326;43.882;2023-03-15T01:23:52;100735.16;;;2.96;57.35
70302;BME280;57706;56.326;43.882;2023-03-15T01:26:20;100725.16;;;3.02;57.10
70302;BME280;57706;56.326;43.882;2023-03-15T01:28:46;100735.84;;;3.11;56.78
70302;BME280;57706;56.326;43.882;2023-03-15T01:31:22;100755.09;;;2.95;57.31
70302;BME280;57706;56.326;43.882;2023-03-15T01:33:48;100750.72;;;2.83;57.68
70302;BME280;57706;56.326;43.882;2023-03-15T01:36:14;100744.91;;;2.92;57.56
70302;BME280;57706;56.326;43.882;2023-03-15T01:38:41;100740.97;;;2.73;58.28
70302;BME280;57706;56.326;43.882;2023-03-15T01:41:09;100743.25;;;2.91;57.59
70302;BME280;57706;56.326;43.882;2023-03-15T01:43:36;100756.34;;;3.02;57.27
70302;BME280;57706;56.326;43.882;2023-03-15T01:46:25;100746.06;;;2.75;58.15
70302;BME280;57706;56.326;43.882;2023-03-15T01:51:49;100762.91;;;2.82;58.14
70302;BME280;57706;56.326;43.882;2023-03-15T01:57:14;100763.31;;;2.89;58.20
70302;BME280;57706;56.326;43.882;2023-03-15T01:59:46;100775.88;;;2.95;57.86
70302;BME280;57706;56.326;43.882;2023-03-15T02:02:13;100772.75;;;3.03;57.77
70302;BME280;57706;56.326;43.882;2023-03-15T02:04:50;100761.34;;;2.93;57.97
70302;BME280;57706;56.326;43.882;2023-03-15T02:07:20;100755.09;;;2.95;57.97
70302;BME280;57706;56.326;43.882;2023-03-15T02:09:58;100759.38;;;2.96;58.09
70302;BME280;57706;56.326;43.882;2023-03-15T02:12:27;100764.56;;;3.09;57.47
70302;BME280;57706;56.326;43.882;2023-03-15T02:14:55;100768.59;;;2.87;58.41
70302;BME280;57706;56.326;43.882;2023-03-15T02:17:31;100752.19;;;3.13;57.67
70302;BME280;57706;56.326;43.882;2023-03-15T02:20:27;100762.38;;;2.90;58.32
70302;BME280;57706;56.326;43.882;2023-03-15T02:23:01;100751.97;;;2.90;58.49
70302;BME280;57706;56.326;43.882;2023-03-15T02:26:06;100753.22;;;2.84;58.75
70302;BME280;57706;56.326;43.882;2023-03-15T02:28:36;100760.63;;;3.03;58.08
70302;BME280;57706;56.326;43.882;2023-03-15T02:31:03;100745.13;;;3.02;58.00
70302;BME280;57706;56.326;43.882;2023-03-15T02:33:52;100761.53;;;2.89;58.33
70302;BME280;57706;56.326;43.882;2023-03-15T02:36:24;100775.03;;;3.08;57.69
70302;BME280;57706;56.326;43.882;2023-03-15T02:38:51;100767.34;;;2.93;58.58
70302;BME280;57706;56.326;43.882;2023-03-15T02:41:27;100753.41;;;2.94;58.46
70302;BME280;57706;56.326;43.882;2023-03-15T02:43:58;100748.84;;;2.85;58.84
70302;BME280;57706;56.326;43.882;2023-03-15T02:46:27;100765.50;;;2.82;58.84
70302;BME280;57706;56.326;43.882;2023-03-15T02:48:53;100749.59;;;2.87;58.56
70302;BME280;57706;56.326;43.882;2023-03-15T02:51:22;100759.88;;;3.01;58.08
70302;BME280;57706;56.326;43.882;2023-03-15T02:53:49;100774.41;;;3.04;58.21
70302;BME280;57706;56.326;43.882;2023-03-15T02:56:15;100745.03;;;2.91;58.32
70302;BME280;57706;56.326;43.882;2023-03-15T02:58:41;100761.13;;;2.96;58.09
70302;BME280;57706;56.326;43.882;2023-03-15T03:01:13;100759.03;;;2.75;58.94
70302;BME280;57706;56.326;43.882;2023-03-15T03:03:40;100778.56;;;2.94;58.42
70302;BME280;57706;56.326;43.882;2023-03-15T03:06:06;100764.44;;;2.85;58.49
70302;BME280;57706;56.326;43.882;2023-03-15T03:08:35;100776.03;;;2.66;59.26
70302;BME280;57706;56.326;43.882;2023-03-15T03:11:03;100756.53;;;2.73;59.01
70302;BME280;57706;56.326;43.882;2023-03-15T03:13:29;100755.59;;;2.74;59.03
70302;BME280;57706;56.326;43.882;2023-03-15T03:15:55;100767.88;;;2.72;59.03
70302;BME280;57706;56.326;43.882;2023-03-15T03:18:27;100747.41;;;2.68;59.11
70302;BME280;57706;56.326;43.882;2023-03-15T03:20:55;100749.22;;;2.53;59.84
70302;BME280;57706;56.326;43.882;2023-03-15T03:23:22;100760.06;;;2.72;59.14
70302;BME280;57706;56.326;43.882;2023-03-15T03:25:54;100793.25;;;2.54;59.64
70302;BME280;57706;56.326;43.882;2023-03-15T03:28:25;100763.78;;;2.68;59.01
70302;BME280;57706;56.326;43.882;2023-03-15T03:30:53;100781.25;;;2.66;58.96
70302;BME280;57706;56.326;43.882;2023-03-15T03:33:19;100778.22;;;2.59;59.38
70302;BME280;57706;56.326;43.882;2023-03-15T03:35:47;100762.34;;;2.64;59.33
70302;BME280;57706;56.326;43.882;2023-03-15T03:38:13;100767.94;;;2.58;59.62
70302;BME280;57706;56.326;43.882;2023-03-15T03:40:44;100768.88;;;2.57;59.82
70302;BME280;57706;56.326;43.882;2023-03-15T03:43:10;100770.00;;;2.53;59.68
70302;BME280;57706;56.326;43.882;2023-03-15T03:45:36;100769.81;;;2.56;59.74
70302;BME280;57706;56.326;43.882;2023-03-15T03:48:02;100781.84;;;2.57;59.41
70302;BME280;57706;56.326;43.882;2023-03-15T03:50:30;100780.63;;;2.75;58.95
70302;BME280;57706;56.326;43.882;2023-03-15T03:52:56;100773.78;;;2.74;58.90
70302;BME280;57706;56.326;43.882;2023-03-15T03:55:26;100772.34;;;2.70;58.91
70302;BME280;57706;56.326;43.882;2023-03-15T03:57:53;100788.22;;;2.66;59.11
70302;BME280;57706;56.326;43.882;2023-03-15T04:00:35;100770.81;;;2.40;59.97
70302;BME280;57706;56.326;43.882;2023-03-15T04:03:02;100786.81;;;2.60;59.48
70302;BME280;57706;56.326;43.882;2023-03-15T04:05:30;100790.75;;;2.53;59.58
70302;BME280;57706;56.326;43.882;2023-03-15T04:07:56;100784.13;;;2.61;59.49
70302;BME280;57706;56.326;43.882;2023-03-15T04:10:23;100790.69;;;2.27;60.62
70302;BME280;57706;56.326;43.882;2023-03-15T04:12:53;100788.28;;;2.51;59.90
70302;BME280;57706;56.326;43.882;2023-03-15T04:15:19;100810.72;;;2.65;59.32
70302;BME280;57706;56.326;43.882;2023-03-15T04:17:48;100796.53;;;2.43;59.61
70302;BME280;57706;56.326;43.882;2023-03-15T04:20:14;100808.56;;;2.44;59.97
70302;BME280;57706;56.326;43.882;2023-03-15T04:22:43;100803.56;;;2.28;60.60
70302;BME280;57706;56.326;43.882;2023-03-15T04:25:27;100829.53;;;2.41;60.05
70302;BME280;57706;56.326;43.882;2023-03-15T04:28:09;100806.75;;;2.46;59.99
70302;BME280;57706;56.326;43.882;2023-03-15T04:30:53;100816.53;;;2.56;59.70
70302;BME280;57706;56.326;43.882;2023-03-15T04:33:47;100823.56;;;2.54;59.75
70302;BME280;57706;56.326;43.882;2023-03-15T04:36:33;100832.47;;;2.50;59.94
70302;BME280;57706;56.326;43.882;2023-03-15T04:39:17;100813.88;;;2.70;59.51
70302;BME280;57706;56.326;43.882;2023-03-15T04:41:46;100826.25;;;2.52;59.80
70302;BME280;57706;56.326;43.882;2023-03-15T04:44:27;100834.81;;;2.67;59.65
70302;BME280;57706;56.326;43.882;2023-03-15T04:47:16;100834.00;;;2.67;59.53
70302;BME280;57706;56.326;43.882;2023-03-15T04:50:17;100828.00;;;3.05;58.28
70302;BME280;57706;56.326;43.882;2023-03-15T04:52:50;100830.19;;;2.98;58.70
70302;BME280;57706;56.326;43.882;2023-03-15T04:55:34;100840.69;;;3.36;57.39
70302;BME280;57706;56.326;43.882;2023-03-15T04:58:20;100834.69;;;3.48;57.17
70302;BME280;57706;56.326;43.882;2023-03-15T05:01:01;100839.84;;;3.74;56.46
70302;BME280;57706;56.326;43.882;2023-03-15T05:04:05;100870.66;;;3.54;56.62
70302;BME280;57706;56.326;43.882;2023-03-15T05:06:47;100868.38;;;3.63;56.47
70302;BME280;57706;56.326;43.882;2023-03-15T05:09:28;100884.47;;;3.29;57.12
70302;BME280;57706;56.326;43.882;2023-03-15T05:12:07;100828.97;;;3.30;57.49
70302;BME280;57706;56.326;43.882;2023-03-15T05:14:43;100839.47;;;3.41;57.17
70302;BME280;57706;56.326;43.882;2023-03-15T05:17:29;100880.00;;;3.44;57.04
70302;BME280;57706;56.326;43.882;2023-03-15T05:20:18;100868.78;;;3.43;57.08
70302;BME280;57706;56.326;43.882;2023-03-15T05:23:06;100849.88;;;3.54;57.09
70302;BME280;57706;56.326;43.882;2023-03-15T05:25:32;100851.81;;;3.64;56.53
70302;BME280;57706;56.326;43.882;2023-03-15T05:28:25;100858.03;;;3.74;56.47
70302;BME280;57706;56.326;43.882;2023-03-15T05:31:29;100857.53;;;3.82;55.91
70302;BME280;57706;56.326;43.882;2023-03-15T05:34:07;100878.22;;;3.83;56.00
70302;BME280;57706;56.326;43.882;2023-03-15T05:36:35;100870.81;;;4.03;55.31
70302;BME280;57706;56.326;43.882;2023-03-15T05:39:33;100868.41;;;4.00;55.67
70302;BME280;57706;56.326;43.882;2023-03-15T05:42:08;100885.09;;;4.22;54.89
70302;BME280;57706;56.326;43.882;2023-03-15T05:44:53;100874.31;;;4.39;54.41
70302;BME280;57706;56.326;43.882;2023-03-15T05:47:48;100895.13;;;4.39;53.91
70302;BME280;57706;56.326;43.882;2023-03-15T05:50:35;100888.41;;;4.61;53.69
70302;BME280;57706;56.326;43.882;2023-03-15T05:53:19;100864.19;;;4.48;53.95
70302;BME280;57706;56.326;43.882;2023-03-15T05:56:00;100869.94;;;4.64;53.59
70302;BME280;57706;56.326;43.882;2023-03-15T05:58:47;100899.38;;;5.25;52.01
70302;BME280;57706;56.326;43.882;2023-03-15T06:01:31;100874.97;;;5.15;52.17
70302;BME280;57706;56.326;43.882;2023-03-15T06:04:16;100895.47;;;5.31;51.88
70302;BME280;57706;56.326;43.882;2023-03-15T06:06:43;100871.25;;;5.06;52.44
70302;BME280;57706;56.326;43.882;2023-03-15T06:09:10;100890.53;;;5.39;51.61
70302;BME280;57706;56.326;43.882;2023-03-15T06:11:36;100870.63;;;5.72;51.00
70302;BME280;57706;56.326;43.882;2023-03-15T06:14:03;100880.22;;;5.72;50.85
70302;BME280;57706;56.326;43.882;2023-03-15T06:16:50;100872.28;;;6.19;49.92
70302;BME280;57706;56.326;43.882;2023-03-15T06:19:17;100876.22;;;5.90;50.47
70302;BME280;57706;56.326;43.882;2023-03-15T06:21:43;100878.94;;;5.77;50.04
70302;BME280;57706;56.326;43.882;2023-03-15T06:24:17;100881.28;;;5.92;49.94
70302;BME280;57706;56.326;43.882;2023-03-15T06:26:43;100895.00;;;6.40;49.28
70302;BME280;57706;56.326;43.882;2023-03-15T06:29:10;100900.34;;;6.38;48.81
70302;BME280;57706;56.326;43.882;2023-03-15T06:31:36;100904.81;;;6.59;48.51
70302;BME280;57706;56.326;43.882;2023-03-15T06:34:05;100904.06;;;6.36;48.86
70302;BME280;57706;56.326;43.882;2023-03-15T06:36:32;100895.50;;;6.99;47.73
70302;BME280;57706;56.326;43.882;2023-03-15T06:38:58;100898.00;;;7.00;47.00
70302;BME280;57706;56.326;43.882;2023-03-15T06:41:25;100865.59;;;7.65;46.00
70302;BME280;57706;56.326;43.882;2023-03-15T06:43:58;100892.75;;;7.43;46.31
70302;BME280;57706;56.326;43.882;2023-03-15T06:46:24;100934.78;;;7.30;46.79
70302;BME280;57706;56.326;43.882;2023-03-15T06:48:50;100944.47;;;7.18;46.59
70302;BME280;57706;56.326;43.882;2023-03-15T06:51:17;100897.78;;;7.56;46.20
70302;BME280;57706;56.326;43.882;2023-03-15T06:53:42;100895.25;;;7.44;45.95
70302;BME280;57706;56.326;43.882;2023-03-15T06:56:10;100904.63;;;7.47;45.89
70302;BME280;57706;56.326;43.882;2023-03-15T06:58:36;100901.28;;;8.17;44.92
70302;BME280;57706;56.326;43.882;2023-03-15T07:01:02;100909.84;;;10.23;40.28
70302;BME280;57706;56.326;43.882;2023-03-15T07:03:28;100904.22;;;13.14;35.00
70302;BME280;57706;56.326;43.882;2023-03-15T07:05:54;100900.88;;;16.09;30.08
70302;BME280;57706;56.326;43.882;2023-03-15T07:08:21;100910.00;;;13.01;34.15
70302;BME280;57706;56.326;43.882;2023-03-15T07:10:48;100903.41;;;10.90;38.05
70302;BME280;57706;56.326;43.882;2023-03-15T07:13:15;100906.50;;;11.04;37.89
70302;BME280;57706;56.326;43.882;2023-03-15T07:15:41;100919.44;;;10.42;38.60
70302;BME280;57706;56.326;43.882;2023-03-15T07:18:07;100910.19;;;10.10;39.62
70302;BME280;57706;56.326;43.882;2023-03-15T07:20:33;100913.16;;;9.59;40.67
70302;BME280;57706;56.326;43.882;2023-03-15T07:22:59;100922.31;;;9.83;40.14
70302;BME280;57706;56.326;43.882;2023-03-15T07:25:25;100920.03;;;11.35;37.56
70302;BME280;57706;56.326;43.882;2023-03-15T07:27:51;100915.44;;;12.58;35.10
70302;BME280;57706;56.326;43.882;2023-03-15T07:30:19;100911.91;;;11.90;36.34
70302;BME280;57706;56.326;43.882;2023-03-15T07:32:45;100915.91;;;10.70;38.43
70302;BME280;57706;56.326;43.882;2023-03-15T07:35:12;100918.56;;;11.41;37.00
70302;BME280;57706;56.326;43.882;2023-03-15T07:37:38;100885.53;;;12.16;35.54
70302;BME280;57706;56.326;43.882;2023-03-15T07:40:04;100912.28;;;14.57;32.17
70302;BME280;57706;56.326;43.882;2023-03-15T07:42:38;100914.00;;;14.50;31.99
70302;BME280;57706;56.326;43.882;2023-03-15T07:45:06;100935.63;;;19.44;25.55
70302;BME280;57706;56.326;43.882;2023-03-15T07:47:32;100911.84;;;18.34;26.12
70302;BME280;57706;56.326;43.882;2023-03-15T07:49:58;100927.03;;;18.94;25.23
70302;BME280;57706;56.326;43.882;2023-03-15T07:52:24;100936.47;;;19.04;25.05
70302;BME280;57706;56.326;43.882;2023-03-15T07:54:50;100917.19;;;19.42;24.96
70302;BME280;57706;56.326;43.882;2023-03-15T07:57:16;100924.66;;;22.38;21.47
70302;BME280;57706;56.326;43.882;2023-03-15T07:59:42;100920.66;;;21.24;22.13
70302;BME280;57706;56.326;43.882;2023-03-15T08:02:14;100933.75;;;19.58;23.56
70302;BME280;57706;56.326;43.882;2023-03-15T08:04:40;100935.22;;;19.40;24.49
70302;BME280;57706;56.326;43.882;2023-03-15T08:07:06;100955.00;;;16.73;27.62
70302;BME280;57706;56.326;43.882;2023-03-15T08:09:33;100942.13;;;17.49;26.61
70302;BME280;57706;56.326;43.882;2023-03-15T08:12:00;100928.16;;;18.18;25.86
70302;BME280;57706;56.326;43.882;2023-03-15T08:14:26;100951.66;;;17.72;26.30
70302;BME280;57706;56.326;43.882;2023-03-15T08:16:52;100938.94;;;19.12;24.39
70302;BME280;57706;56.326;43.882;2023-03-15T08:19:18;100942.63;;;17.66;26.25
70302;BME280;57706;56.326;43.882;2023-03-15T08:21:44;100957.88;;;13.96;31.39
70302;BME280;57706;56.326;43.882;2023-03-15T08:24:10;100958.19;;;14.01;31.63
70302;BME280;57706;56.326;43.882;2023-03-15T08:26:36;100952.06;;;13.03;33.55
70302;BME280;57706;56.326;43.882;2023-03-15T08:29:03;100947.75;;;13.35;33.04
70302;BME280;57706;56.326;43.882;2023-03-15T08:31:29;100947.91;;;13.42;33.10
70302;BME280;57706;56.326;43.882;2023-03-15T08:33:55;100952.00;;;12.53;34.18
70302;BME280;57706;56.326;43.882;2023-03-15T08:36:21;100952.06;;;12.86;34.21
70302;BME280;57706;56.326;43.882;2023-03-15T08:38:47;100961.16;;;12.32;35.01
70302;BME280;57706;56.326;43.882;2023-03-15T08:41:12;100953.53;;;12.13;35.79
70302;BME280;57706;56.326;43.882;2023-03-15T08:43:38;100954.16;;;12.06;35.85
70302;BME280;57706;56.326;43.882;2023-03-15T08:46:04;100956.88;;;11.88;36.15
70302;BME280;57706;56.326;43.882;2023-03-15T08:48:30;100950.59;;;11.54;36.68
70302;BME280;57706;56.326;43.882;2023-03-15T08:51:05;100972.75;;;10.53;38.53
70302;BME280;57706;56.326;43.882;2023-03-15T08:53:31;100958.31;;;10.57;38.81
70302;BME280;57706;56.326;43.882;2023-03-15T08:55:58;100982.31;;;11.08;37.50
70302;BME280;57706;56.326;43.882;2023-03-15T08:58:23;100960.53;;;10.80;38.08
70302;BME280;57706;56.326;43.882;2023-03-15T09:00:49;100993.00;;;10.42;38.43
70302;BME280;57706;56.326;43.882;2023-03-15T09:03:16;100968.16;;;10.27;38.96
70302;BME280;57706;56.326;43.882;2023-03-15T09:05:43;100959.38;;;10.08;39.34
70302;BME280;57706;56.326;43.882;2023-03-15T09:08:09;100978.28;;;10.50;38.50
70302;BME280;57706;56.326;43.882;2023-03-15T09:10:35;100950.75;;;10.54;38.32
70302;BME280;57706;56.326;43.882;2023-03-15T09:13:01;100957.06;;;10.33;38.13
70302;BME280;57706;56.326;43.882;2023-03-15T09:15:27;100960.44;;;9.87;39.16
70302;BME280;57706;56.326;43.882;2023-03-15T09:17:53;100956.66;;;10.00;39.29
70302;BME280;57706;56.326;43.882;2023-03-15T09:20:19;100952.06;;;10.40;38.98
70302;BME280;57706;56.326;43.882;2023-03-15T09:22:52;100957.19;;;10.03;39.22
70302;BME280;57706;56.326;43.882;2023-03-15T09:25:18;100966.16;;;9.73;40.11
70302;BME280;57706;56.326;43.882;2023-03-15T09:27:44;100968.03;;;9.90;39.40
70302;BME280;57706;56.326;43.882;2023-03-15T09:30:11;100950.47;;;10.75;38.09
70302;BME280;57706;56.326;43.882;2023-03-15T09:32:37;100949.72;;;10.65;38.05
70302;BME280;57706;56.326;43.882;2023-03-15T09:35:05;100961.88;;;10.66;37.76
70302;BME280;57706;56.326;43.882;2023-03-15T09:37:31;100947.34;;;11.16;36.48
70302;BME280;57706;56.326;43.882;2023-03-15T09:39:57;100957.31;;;10.86;36.72
70302;BME280;57706;56.326;43.882;2023-03-15T09:48:26;100944.22;;;11.39;35.88
70302;BME280;57706;56.326;43.882;2023-03-15T09:56:31;100958.84;;;12.21;33.81
70302;BME280;57706;56.326;43.882;2023-03-15T09:59:00;100952.38;;;11.80;34.92
70302;BME280;57706;56.326;43.882;2023-03-15T10:01:32;100955.41;;;12.20;34.08
70302;BME280;57706;56.326;43.882;2023-03-15T10:06:36;100945.94;;;11.48;35.20
70302;BME280;57706;56.326;43.882;2023-03-15T10:09:10;100951.00;;;11.68;34.60
70302;BME280;57706;56.326;43.882;2023-03-15T10:12:32;100949.22;;;12.03;33.68
70302;BME280;57706;56.326;43.882;2023-03-15T10:15:15;100948.69;;;13.75;31.07
70302;BME280;57706;56.326;43.882;2023-03-15T10:20:26;100935.84;;;14.44;30.42
70302;BME280;57706;56.326;43.882;2023-03-15T10:22:55;100934.56;;;13.43;31.32
70302;BME280;57706;56.326;43.882;2023-03-15T10:25:28;100945.72;;;13.79;30.30
70302;BME280;57706;56.326;43.882;2023-03-15T10:30:34;100946.22;;;14.14;29.87
70302;BME280;57706;56.326;43.882;2023-03-15T10:35:34;100932.25;;;16.05;27.40
70302;BME280;57706;56.326;43.882;2023-03-15T10:38:00;100941.66;;;18.16;24.84
70302;BME280;57706;56.326;43.882;2023-03-15T10:40:45;100933.81;;;19.31;22.82
70302;BME280;57706;56.326;43.882;2023-03-15T10:46:01;100953.03;;;14.95;27.81
70302;BME280;57706;56.326;43.882;2023-03-15T10:48:32;100936.28;;;14.79;28.42
70302;BME280;57706;56.326;43.882;2023-03-15T10:51:06;100939.63;;;14.73;28.44
70302;BME280;57706;56.326;43.882;2023-03-15T10:53:32;100923.28;;;15.76;27.48
70302;BME280;57706;56.326;43.882;2023-03-15T10:56:01;100922.47;;;18.27;24.08
70302;BME280;57706;56.326;43.882;2023-03-15T10:58:39;100915.69;;;20.19;21.84
70302;BME280;57706;56.326;43.882;2023-03-15T11:01:07;100915.16;;;20.42;21.37
70302;BME280;57706;56.326;43.882;2023-03-15T11:03:36;100916.50;;;22.33;19.29
70302;BME280;57706;56.326;43.882;2023-03-15T11:06:18;100909.09;;;20.79;20.76
70302;BME280;57706;56.326;43.882;2023-03-15T11:08:44;100917.88;;;22.54;19.58
70302;BME280;57706;56.326;43.882;2023-03-15T11:11:10;100916.19;;;22.53;18.69
70302;BME280;57706;56.326;43.882;2023-03-15T11:13:38;100914.75;;;21.40;19.21
70302;BME280;57706;56.326;43.882;2023-03-15T11:18:45;100909.00;;;18.56;22.58
70302;BME280;57706;56.326;43.882;2023-03-15T11:21:14;100907.75;;;20.38;20.98
70302;BME280;57706;56.326;43.882;2023-03-15T11:23:45;100897.56;;;18.69;22.14
70302;BME280;57706;56.326;43.882;2023-03-15T11:26:16;100907.97;;;17.88;23.49
70302;BME280;57706;56.326;43.882;2023-03-15T11:28:47;100897.28;;;23.03;18.77
70302;BME280;57706;56.326;43.882;2023-03-15T11:31:13;100888.72;;;24.58;17.04
70302;BME280;57706;56.326;43.882;2023-03-15T11:34:07;100893.44;;;24.85;16.61
70302;BME280;57706;56.326;43.882;2023-03-15T11:36:39;100896.56;;;22.95;17.39
70302;BME280;57706;56.326;43.882;2023-03-15T11:39:09;100894.66;;;21.12;19.14
70302;BME280;57706;56.326;43.882;2023-03-15T11:41:42;100898.75;;;18.46;21.98
70302;BME280;57706;56.326;43.882;2023-03-15T11:44:37;100889.78;;;19.08;21.91
70302;BME280;57706;56.326;43.882;2023-03-15T11:49:48;100903.44;;;18.37;22.03
70302;BME280;57706;56.326;43.882;2023-03-15T11:52:16;100923.25;;;18.14;22.19
70302;BME280;57706;56.326;43.882;2023-03-15T11:54:44;100914.00;;;20.25;20.44
70302;BME280;57706;56.326;43.882;2023-03-15T11:59:56;100901.72;;;23.33;17.45
70302;BME280;57706;56.326;43.882;2023-03-15T12:04:49;100912.13;;;22.20;17.93
70302;BME280;57706;56.326;43.882;2023-03-15T12:17:49;100912.06;;;22.81;17.04
70302;BME280;57706;56.326;43.882;2023-03-15T12:22:52;100912.50;;;22.24;17.54
70302;BME280;57706;56.326;43.882;2023-03-15T12:25:31;100899.72;;;21.21;18.10
70302;BME280;57706;56.326;43.882;2023-03-15T12:28:04;100896.53;;;20.29;19.15
70302;BME280;57706;56.326;43.882;2023-03-15T12:30:41;100909.22;;;19.88;19.40
70302;BME280;57706;56.326;43.882;2023-03-15T12:33:17;100900.66;;;21.08;18.24
70302;BME280;57706;56.326;43.882;2023-03-15T12:35:43;100908.59;;;19.99;19.22
70302;BME280;57706;56.326;43.882;2023-03-15T12:38:22;100896.69;;;20.66;19.04
70302;BME280;57706;56.326;43.882;2023-03-15T12:40:56;100898.09;;;20.04;19.10
70302;BME280;57706;56.326;43.882;2023-03-15T12:43:44;100903.19;;;20.13;19.29
70302;BME280;57706;56.326;43.882;2023-03-15T12:49:56;100905.97;;;20.63;19.15
70302;BME280;57706;56.326;43.882;2023-03-15T12:52:24;100901.47;;;19.07;20.19
70302;BME280;57706;56.326;43.882;2023-03-15T12:57:29;100920.00;;;18.26;21.08
70302;BME280;57706;56.326;43.882;2023-03-15T13:00:03;100904.50;;;18.63;21.04
70302;BME280;57706;56.326;43.882;2023-03-15T13:02:58;100902.41;;;18.38;21.43
70302;BME280;57706;56.326;43.882;2023-03-15T13:08:22;100898.31;;;16.37;23.17
70302;BME280;57706;56.326;43.882;2023-03-15T13:16:55;100907.09;;;17.03;22.93
70302;BME280;57706;56.326;43.882;2023-03-15T13:19:45;100909.38;;;16.41;23.60
70302;BME280;57706;56.326;43.882;2023-03-15T13:22:13;100908.94;;;16.59;23.48
70302;BME280;57706;56.326;43.882;2023-03-15T13:24:54;100910.97;;;15.99;23.95
70302;BME280;57706;56.326;43.882;2023-03-15T13:33:20;100925.66;;;13.19;27.86
70302;BME280;57706;56.326;43.882;2023-03-15T13:36:02;100917.38;;;13.39;27.49
70302;BME280;57706;56.326;43.882;2023-03-15T13:38:34;100914.69;;;13.72;26.89
70302;BME280;57706;56.326;43.882;2023-03-15T13:41:14;100923.31;;;13.66;26.97
70302;BME280;57706;56.326;43.882;2023-03-15T13:43:40;100909.78;;;13.44;27.27
70302;BME280;57706;56.326;43.882;2023-03-15T13:46:07;100908.47;;;13.57;27.26
70302;BME280;57706;56.326;43.882;2023-03-15T13:48:35;100909.81;;;13.36;27.62
70302;BME280;57706;56.326;43.882;2023-03-15T13:51:04;100908.28;;;13.67;27.63
70302;BME280;57706;56.326;43.882;2023-03-15T13:53:34;100901.28;;;12.92;28.57
70302;BME280;57706;56.326;43.882;2023-03-15T13:56:01;100907.56;;;13.00;28.38
70302;BME280;57706;56.326;43.882;2023-03-15T13:58:31;100905.41;;;12.78;29.11
70302;BME280;57706;56.326;43.882;2023-03-15T14:00:59;100900.66;;;12.06;30.23
70302;BME280;57706;56.326;43.882;2023-03-15T14:03:27;100898.63;;;11.65;30.96
70302;BME280;57706;56.326;43.882;2023-03-15T14:05:55;100904.84;;;11.55;31.20
70302;BME280;57706;56.326;43.882;2023-03-15T14:08:30;100896.72;;;11.40;31.63
70302;BME280;57706;56.326;43.882;2023-03-15T14:11:02;100907.53;;;11.11;32.12
70302;BME280;57706;56.326;43.882;2023-03-15T14:13:33;100908.19;;;10.68;32.79
70302;BME280;57706;56.326;43.882;2023-03-15T14:18:36;100918.94;;;10.29;33.78
70302;BME280;57706;56.326;43.882;2023-03-15T14:23:35;100914.94;;;8.72;36.00
70302;BME280;57706;56.326;43.882;2023-03-15T14:26:17;100917.03;;;8.27;36.65